createdAt,value
2022-10-23T00:00:12.742Z,10.70
2022-10-23T00:02:42.110Z,10.70
2022-10-23T00:05:11.450Z,10.70
2022-10-23T00:07:40.276Z,10.60
2022-10-23T00:10:10.843Z,10.60
2022-10-23T00:12:41.552Z,10.70
2022-10-23T00:15:11.246Z,10.70
2022-10-23T00:17:40.501Z,10.70
2022-10-23T00:20:11.181Z,10.70
2022-10-23T00:22:40.414Z,10.80
2022-10-23T00:25:10.938Z,10.80
2022-10-23T00:27:41.447Z,10.80
2022-10-23T00:30:11.531Z,10.80
2022-10-23T00:32:40.470Z,10.80
2022-10-23T00:35:10.037Z,10.90
2022-10-23T00:37:38.902Z,10.90
2022-10-23T00:40:09.328Z,10.90
2022-10-23T00:42:38.233Z,10.90
2022-10-23T00:45:22.990Z,11.00
2022-10-23T00:47:52.157Z,11.00
2022-10-23T00:50:25.295Z,11.00
2022-10-23T00:52:56.193Z,11.00
2022-10-23T00:55:26.880Z,11.00
2022-10-23T00:57:56.068Z,11.10
2022-10-23T01:00:28.662Z,11.10
2022-10-23T01:02:58.717Z,11.10
2022-10-23T01:05:33.417Z,11.20
2022-10-23T01:08:07.675Z,11.20
2022-10-23T01:10:40.307Z,11.20
2022-10-23T01:13:16.952Z,11.30
2022-10-23T01:15:54.870Z,11.30
2022-10-23T01:18:33.358Z,11.40
2022-10-23T01:21:07.106Z,11.40
2022-10-23T01:24:13.701Z,11.40
2022-10-23T01:26:58.768Z,11.40
2022-10-23T01:29:35.282Z,11.50
2022-10-23T01:32:08.521Z,11.50
2022-10-23T01:34:46.245Z,11.50
2022-10-23T01:37:20.814Z,11.50
2022-10-23T01:39:54.464Z,11.50
2022-10-23T01:42:28.465Z,11.50
2022-10-23T01:45:04.796Z,11.50
2022-10-23T01:47:45.622Z,11.50
2022-10-23T01:50:18.762Z,11.50
2022-10-23T01:52:50.122Z,11.50
2022-10-23T01:55:19.614Z,11.50
2022-10-23T01:57:50.385Z,11.50
2022-10-23T02:00:21.927Z,11.50
2022-10-23T02:03:10.278Z,11.50
2022-10-23T02:05:39.645Z,11.50
2022-10-23T02:08:08.849Z,11.50
2022-10-23T02:10:44.784Z,11.50
2022-10-23T02:13:21.827Z,11.50
2022-10-23T02:16:00.183Z,11.50
2022-10-23T02:18:36.300Z,11.50
2022-10-23T02:21:30.286Z,11.50
2022-10-23T02:24:04.568Z,11.50
2022-10-23T02:26:39.725Z,11.50
2022-10-23T02:29:14.191Z,11.50
2022-10-23T02:31:48.134Z,11.50
2022-10-23T02:34:20.474Z,11.50
2022-10-23T02:36:49.518Z,11.50
2022-10-23T02:39:22.696Z,11.50
2022-10-23T02:41:59.407Z,11.60
2022-10-23T02:44:40.452Z,11.60
2022-10-23T02:47:22.712Z,11.70
2022-10-23T02:50:04.841Z,11.70
2022-10-23T02:52:39.804Z,11.80
2022-10-23T02:55:18.351Z,11.90
2022-10-23T02:57:56.148Z,12.00
2022-10-23T03:00:25.670Z,12.00
2022-10-23T03:02:59.501Z,12.00
2022-10-23T03:05:35.984Z,12.00
2022-10-23T03:08:05.721Z,12.00
2022-10-23T03:10:34.466Z,12.00
2022-10-23T03:13:03.520Z,12.10
2022-10-23T03:15:40.261Z,12.10
2022-10-23T03:18:14.386Z,12.10
2022-10-23T03:20:47.751Z,12.10
2022-10-23T03:23:17.250Z,12.20
2022-10-23T03:25:46.100Z,12.20
2022-10-23T03:28:27.702Z,12.30
2022-10-23T03:30:56.718Z,12.50
2022-10-23T03:33:27.084Z,12.60
2022-10-23T03:35:56.100Z,12.70
2022-10-23T03:38:26.097Z,12.80
2022-10-23T03:40:54.881Z,13.00
2022-10-23T03:43:23.679Z,13.00
2022-10-23T03:45:52.554Z,13.00
2022-10-23T03:48:21.428Z,13.10
2022-10-23T03:50:51.613Z,13.00
2022-10-23T03:53:20.581Z,13.00
2022-10-23T03:55:49.470Z,13.00
2022-10-23T03:58:19.327Z,13.00
2022-10-23T04:00:48.429Z,12.90
2022-10-23T04:03:17.268Z,12.90
2022-10-23T04:05:46.067Z,12.80
2022-10-23T04:08:19.294Z,12.80
2022-10-23T04:10:51.719Z,12.70
2022-10-23T04:13:24.012Z,12.70
2022-10-23T04:15:54.197Z,12.70
2022-10-23T04:18:23.212Z,12.70
2022-10-23T04:20:52.562Z,12.80
2022-10-23T04:23:22.894Z,12.90
2022-10-23T04:25:51.883Z,13.00
2022-10-23T04:28:25.210Z,13.10
2022-10-23T04:30:54.011Z,13.20
2022-10-23T04:33:22.925Z,13.30
2022-10-23T04:35:53.286Z,13.40
2022-10-23T04:38:23.557Z,13.40
2022-10-23T04:40:52.575Z,13.50
2022-10-23T04:43:23.761Z,13.60
2022-10-23T04:45:52.558Z,13.60
2022-10-23T04:48:25.566Z,13.60
2022-10-23T04:51:15.932Z,13.70
2022-10-23T04:54:09.767Z,13.60
2022-10-23T04:56:49.133Z,13.50
2022-10-23T04:59:20.687Z,13.50
2022-10-23T05:01:50.834Z,13.40
2022-10-23T05:04:20.624Z,13.30
2022-10-23T05:07:15.212Z,13.30
2022-10-23T05:09:52.377Z,13.30
2022-10-23T05:12:41.137Z,13.20
2022-10-23T05:15:28.470Z,13.20
2022-10-23T05:18:01.659Z,13.20
2022-10-23T05:20:34.944Z,13.20
2022-10-23T05:23:04.278Z,13.20
2022-10-23T05:25:34.552Z,13.20
2022-10-23T05:28:13.942Z,13.20
2022-10-23T05:30:44.193Z,13.20
2022-10-23T05:33:13.374Z,13.30
2022-10-23T05:35:45.787Z,13.30
2022-10-23T05:38:18.008Z,13.40
2022-10-23T05:40:48.834Z,13.40
2022-10-23T05:43:21.273Z,13.50
2022-10-23T05:45:53.864Z,13.60
2022-10-23T05:48:35.689Z,13.70
2022-10-23T05:51:23.563Z,13.70
2022-10-23T05:54:30.502Z,13.80
2022-10-23T05:57:23.705Z,13.90
2022-10-23T05:59:54.374Z,13.90
2022-10-23T06:02:42.308Z,14.00
2022-10-23T06:05:24.535Z,14.10
2022-10-23T06:08:28.534Z,14.20
2022-10-23T06:10:57.575Z,14.30
2022-10-23T06:13:27.745Z,14.50
2022-10-23T06:15:56.812Z,14.60
2022-10-23T06:18:27.419Z,14.70
2022-10-23T06:21:08.041Z,14.80
2022-10-23T06:23:38.991Z,15.00
2022-10-23T06:26:09.543Z,15.00
2022-10-23T06:28:54.217Z,15.20
2022-10-23T06:31:26.975Z,15.30
2022-10-23T06:33:59.296Z,15.40
2022-10-23T06:36:29.510Z,15.50
2022-10-23T06:39:22.436Z,15.50
2022-10-23T06:42:11.560Z,15.60
2022-10-23T06:45:03.412Z,15.70
2022-10-23T06:47:39.488Z,15.80
2022-10-23T06:50:31.022Z,15.80
2022-10-23T06:53:02.117Z,15.90
2022-10-23T06:55:31.835Z,15.90
2022-10-23T06:58:00.741Z,16.00
2022-10-23T07:00:31.807Z,16.00
2022-10-23T07:03:01.602Z,16.10
2022-10-23T07:05:30.860Z,16.20
2022-10-23T07:07:59.905Z,16.20
2022-10-23T07:10:35.625Z,16.20
2022-10-23T07:13:04.645Z,16.40
2022-10-23T07:15:41.138Z,16.40
2022-10-23T07:18:17.082Z,16.50
2022-10-23T07:21:09.001Z,16.70
2022-10-23T07:23:39.906Z,16.80
2022-10-23T07:26:10.730Z,17.00
2022-10-23T07:28:39.603Z,17.10
2022-10-23T07:31:10.873Z,17.20
2022-10-23T07:33:59.597Z,17.30
2022-10-23T07:36:47.094Z,17.40
2022-10-23T07:39:15.970Z,17.50
2022-10-23T07:41:51.851Z,17.60
2022-10-23T07:44:23.089Z,17.60
2022-10-23T07:46:56.094Z,17.60
2022-10-23T07:49:25.088Z,17.70
2022-10-23T07:51:54.166Z,17.70
2022-10-23T07:54:36.157Z,17.80
2022-10-23T07:57:22.216Z,17.90
2022-10-23T07:59:57.583Z,18.00
2022-10-23T08:02:28.478Z,18.10
2022-10-23T08:04:57.640Z,18.20
2022-10-23T08:07:32.520Z,18.80
2022-10-23T08:10:02.363Z,19.20
2022-10-23T08:12:31.975Z,19.30
2022-10-23T08:15:01.003Z,19.30
2022-10-23T08:17:39.909Z,19.30
2022-10-23T08:20:29.173Z,19.40
2022-10-23T08:22:59.104Z,19.60
2022-10-23T08:25:28.694Z,19.80
2022-10-23T08:27:57.584Z,20.00
2022-10-23T08:30:26.513Z,20.10
2022-10-23T08:32:56.874Z,20.20
2022-10-23T08:35:25.826Z,20.30
2022-10-23T08:37:54.801Z,20.40
2022-10-23T08:40:26.705Z,20.50
2022-10-23T08:43:20.619Z,20.50
2022-10-23T08:46:09.611Z,20.40
2022-10-23T08:49:18.914Z,20.60
2022-10-23T08:52:00.485Z,20.90
2022-10-23T08:54:40.781Z,21.20
2022-10-23T08:57:14.988Z,21.40
2022-10-23T08:59:48.850Z,21.40
2022-10-23T09:02:23.611Z,21.40
2022-10-23T09:04:56.902Z,21.50
2022-10-23T09:07:37.565Z,21.70
2022-10-23T09:10:26.435Z,22.30
2022-10-23T09:13:36.189Z,22.80
2022-10-23T09:16:17.206Z,23.30
2022-10-23T09:18:49.971Z,23.80
2022-10-23T09:21:21.031Z,24.70
2022-10-23T09:23:50.133Z,25.90
2022-10-23T09:26:20.338Z,26.30
2022-10-23T09:28:51.700Z,26.90
2022-10-23T09:31:21.088Z,28.10
2022-10-23T09:33:57.044Z,29.10
2022-10-23T09:36:29.556Z,30.10
2022-10-23T09:39:00.466Z,31.00
2022-10-23T09:41:31.883Z,31.80
2022-10-23T09:44:16.622Z,32.50
2022-10-23T09:46:48.795Z,33.10
2022-10-23T09:49:20.251Z,33.50
2022-10-23T09:52:03.049Z,33.80
2022-10-23T09:54:34.810Z,34.10
2022-10-23T09:57:14.759Z,34.20
2022-10-23T10:00:06.905Z,34.30
2022-10-23T10:02:41.792Z,34.50
2022-10-23T10:05:25.441Z,34.70
2022-10-23T10:08:02.617Z,34.80
2022-10-23T10:10:39.140Z,34.70
2022-10-23T10:13:23.127Z,34.70
2022-10-23T10:15:57.148Z,34.70
2022-10-23T10:18:36.775Z,34.80
2022-10-23T10:21:15.629Z,34.90
2022-10-23T10:23:51.955Z,35.00
2022-10-23T10:26:36.139Z,35.10
2022-10-23T10:29:19.279Z,35.00
2022-10-23T10:31:59.675Z,34.80
2022-10-23T10:34:34.329Z,34.80
2022-10-23T10:37:09.094Z,34.80
2022-10-23T10:39:48.752Z,34.90
2022-10-23T10:42:38.505Z,34.80
2022-10-23T10:45:29.674Z,34.80
2022-10-23T10:48:15.689Z,34.70
2022-10-23T10:51:07.287Z,34.80
2022-10-23T10:54:10.461Z,34.80
2022-10-23T10:56:45.184Z,34.70
2022-10-23T10:59:22.367Z,34.60
2022-10-23T11:01:57.628Z,34.50
2022-10-23T11:04:35.433Z,34.30
2022-10-23T11:07:15.587Z,34.00
2022-10-23T11:09:45.324Z,33.50
2022-10-23T11:12:21.400Z,32.70
2022-10-23T11:14:51.764Z,31.70
2022-10-23T11:17:26.805Z,30.70
2022-10-23T11:20:03.283Z,29.80
2022-10-23T11:22:38.057Z,29.10
2022-10-23T11:25:25.692Z,28.40
2022-10-23T11:28:10.753Z,28.10
2022-10-23T11:30:56.310Z,27.90
2022-10-23T11:34:06.885Z,27.80
2022-10-23T11:36:46.513Z,28.00
2022-10-23T11:39:23.801Z,28.20
2022-10-23T11:41:56.132Z,28.20
2022-10-23T11:44:41.038Z,28.20
2022-10-23T11:47:29.131Z,28.20
2022-10-23T11:50:17.603Z,28.20
2022-10-23T11:53:15.436Z,28.00
2022-10-23T11:56:03.017Z,27.70
2022-10-23T11:58:44.323Z,27.40
2022-10-23T12:01:37.471Z,27.10
2022-10-23T12:04:25.118Z,26.80
2022-10-23T12:06:57.589Z,26.50
2022-10-23T12:09:31.883Z,26.30
2022-10-23T12:12:18.472Z,26.10
2022-10-23T12:14:49.611Z,25.90
2022-10-23T12:17:36.069Z,25.70
2022-10-23T12:20:24.724Z,25.60
2022-10-23T12:23:24.951Z,25.50
2022-10-23T12:26:09.132Z,25.40
2022-10-23T12:28:44.812Z,25.30
2022-10-23T12:31:29.102Z,25.20
2022-10-23T12:34:07.394Z,25.20
2022-10-23T12:36:49.961Z,25.10
2022-10-23T12:39:29.612Z,25.10
2022-10-23T12:42:00.157Z,25.10
2022-10-23T12:44:30.621Z,25.00
2022-10-23T12:47:02.057Z,25.00
2022-10-23T12:49:35.661Z,25.00
2022-10-23T12:52:06.834Z,25.10
2022-10-23T12:54:41.547Z,25.10
2022-10-23T12:57:22.502Z,25.00
2022-10-23T12:59:54.485Z,25.10
2022-10-23T13:02:29.100Z,25.00
2022-10-23T13:05:03.474Z,25.00
2022-10-23T13:07:36.085Z,24.90
2022-10-23T13:10:25.121Z,24.90
2022-10-23T13:13:00.630Z,24.90
2022-10-23T13:15:39.019Z,24.90
2022-10-23T13:18:09.284Z,24.80
2022-10-23T13:20:43.662Z,24.80
2022-10-23T13:23:19.644Z,24.70
2022-10-23T13:25:56.138Z,24.70
2022-10-23T13:28:27.991Z,24.70
2022-10-23T13:31:03.745Z,24.70
2022-10-23T13:33:38.772Z,24.70
2022-10-23T13:36:23.961Z,24.70
2022-10-23T13:39:04.821Z,24.60
2022-10-23T13:41:38.898Z,24.60
2022-10-23T13:44:08.126Z,24.50
2022-10-23T13:46:36.883Z,24.50
2022-10-23T13:49:05.768Z,24.50
2022-10-23T13:51:42.660Z,24.40
2022-10-23T13:54:16.981Z,24.40
2022-10-23T13:56:45.937Z,24.40
2022-10-23T13:59:15.070Z,24.30
2022-10-23T14:01:45.483Z,24.20
2022-10-23T14:04:15.568Z,24.20
2022-10-23T14:06:46.194Z,24.20
2022-10-23T14:09:17.808Z,24.10
2022-10-23T14:11:49.200Z,24.00
2022-10-23T14:14:18.279Z,23.90
2022-10-23T14:16:47.043Z,23.90
2022-10-23T14:19:15.770Z,23.80
2022-10-23T14:21:46.252Z,23.70
2022-10-23T14:24:15.609Z,23.60
2022-10-23T14:26:44.473Z,23.50
2022-10-23T14:29:21.198Z,23.40
2022-10-23T14:31:52.911Z,23.30
2022-10-23T14:34:21.925Z,23.20
2022-10-23T14:37:07.380Z,23.10
2022-10-23T14:39:37.579Z,23.00
2022-10-23T14:42:06.912Z,22.90
2022-10-23T14:44:36.011Z,22.80
2022-10-23T14:47:05.349Z,22.60
2022-10-23T14:49:35.770Z,22.50
2022-10-23T14:52:06.806Z,22.40
2022-10-23T14:54:36.648Z,22.30
2022-10-23T14:57:08.768Z,22.20
2022-10-23T14:59:37.927Z,22.00
2022-10-23T15:02:12.041Z,21.90
2022-10-23T15:04:41.497Z,21.80
2022-10-23T15:07:20.949Z,21.60
2022-10-23T15:09:51.960Z,21.50
2022-10-23T15:12:20.978Z,21.30
2022-10-23T15:14:49.868Z,21.20
2022-10-23T15:17:18.580Z,21.00
2022-10-23T15:19:47.819Z,20.90
2022-10-23T15:22:20.769Z,20.80
2022-10-23T15:24:52.313Z,20.60
2022-10-23T15:27:21.732Z,20.40
2022-10-23T15:29:50.528Z,20.30
2022-10-23T15:32:19.447Z,20.10
2022-10-23T15:34:49.866Z,20.00
2022-10-23T15:37:20.245Z,19.90
2022-10-23T15:39:49.165Z,19.80
2022-10-23T15:42:19.045Z,19.70
2022-10-23T15:44:47.930Z,19.60
2022-10-23T15:47:16.986Z,19.50
2022-10-23T15:49:45.731Z,19.40
2022-10-23T15:52:14.569Z,19.30
2022-10-23T15:54:44.959Z,19.20
2022-10-23T15:57:13.900Z,19.10
2022-10-23T15:59:42.751Z,19.10
2022-10-23T16:02:12.920Z,19.00
2022-10-23T16:04:42.152Z,18.90
2022-10-23T16:07:11.243Z,18.80
2022-10-23T16:09:40.166Z,18.70
2022-10-23T16:12:10.931Z,18.70
2022-10-23T16:14:41.379Z,18.60
2022-10-23T16:17:10.863Z,18.50
2022-10-23T16:19:40.064Z,18.30
2022-10-23T16:22:09.084Z,18.40
2022-10-23T16:24:37.896Z,18.10
2022-10-23T16:27:06.771Z,18.00
2022-10-23T16:29:37.260Z,18.00
2022-10-23T16:32:06.666Z,17.90
2022-10-23T16:34:35.512Z,17.80
2022-10-23T16:37:04.479Z,17.80
2022-10-23T16:39:53.608Z,17.70
2022-10-23T16:42:28.322Z,17.70
2022-10-23T16:45:21.597Z,17.60
2022-10-23T16:47:50.536Z,17.50
2022-10-23T16:50:19.678Z,17.40
2022-10-23T16:52:50.925Z,17.30
2022-10-23T16:55:22.298Z,17.20
2022-10-23T16:57:51.138Z,17.20
2022-10-23T17:00:23.392Z,17.10
2022-10-23T17:02:52.733Z,17.00
2022-10-23T17:05:21.738Z,17.00
2022-10-23T17:07:52.292Z,16.90
2022-10-23T17:10:21.397Z,16.90
2022-10-23T17:12:51.014Z,16.80
2022-10-23T17:15:21.471Z,16.80
2022-10-23T17:17:51.252Z,16.80
2022-10-23T17:20:20.373Z,16.70
2022-10-23T17:22:49.161Z,16.70
2022-10-23T17:25:18.062Z,16.70
2022-10-23T17:27:48.046Z,16.60
2022-10-23T17:30:16.900Z,16.50
2022-10-23T17:32:47.374Z,16.40
2022-10-23T17:35:16.567Z,16.40
2022-10-23T17:37:45.357Z,16.30
2022-10-23T17:40:14.728Z,16.20
2022-10-23T17:42:43.878Z,16.10
2022-10-23T17:45:13.022Z,16.10
2022-10-23T17:47:43.223Z,16.00
2022-10-23T17:50:14.068Z,15.90
2022-10-23T17:52:43.926Z,15.90
2022-10-23T17:55:13.287Z,15.80
2022-10-23T17:57:42.471Z,15.80
2022-10-23T18:00:12.677Z,15.80
2022-10-23T18:02:41.740Z,15.80
2022-10-23T18:05:11.371Z,15.70
2022-10-23T18:07:42.134Z,15.70
2022-10-23T18:10:12.591Z,15.70
2022-10-23T18:12:41.948Z,15.60
2022-10-23T18:15:11.745Z,15.60
2022-10-23T18:17:40.947Z,15.60
2022-10-23T18:20:12.097Z,15.70
2022-10-23T18:22:42.633Z,15.70
2022-10-23T18:25:12.120Z,15.50
2022-10-23T18:27:41.600Z,15.70
2022-10-23T18:30:11.958Z,15.70
2022-10-23T18:32:41.067Z,15.60
2022-10-23T18:35:10.816Z,15.60
2022-10-23T18:37:41.517Z,15.50
2022-10-23T18:40:13.852Z,15.40
2022-10-23T18:42:43.334Z,15.40
2022-10-23T18:45:14.011Z,15.30
2022-10-23T18:47:43.389Z,15.20
2022-10-23T18:50:12.892Z,15.20
2022-10-23T18:52:41.709Z,15.10
2022-10-23T18:55:13.119Z,15.00
2022-10-23T18:57:42.652Z,15.00
2022-10-23T19:00:13.886Z,15.00
2022-10-23T19:02:42.932Z,14.90
2022-10-23T19:05:11.758Z,14.90
2022-10-23T19:07:45.526Z,14.90
2022-10-23T19:10:19.541Z,14.90
2022-10-23T19:13:07.742Z,15.00
2022-10-23T19:15:38.133Z,15.00
2022-10-23T19:18:08.579Z,15.00
2022-10-23T19:20:38.183Z,15.00
2022-10-23T19:23:08.822Z,14.80
2022-10-23T19:25:40.174Z,15.00
2022-10-23T19:28:09.134Z,15.00
2022-10-23T19:30:38.274Z,15.00
2022-10-23T19:33:07.115Z,15.00
2022-10-23T19:35:36.110Z,15.00
2022-10-23T19:38:05.004Z,15.00
2022-10-23T19:40:33.675Z,15.00
2022-10-23T19:43:03.903Z,15.10
2022-10-23T19:45:32.962Z,15.10
2022-10-23T19:48:01.863Z,15.10
2022-10-23T19:50:30.690Z,15.10
2022-10-23T19:53:18.173Z,15.10
2022-10-23T19:55:47.158Z,15.00
2022-10-23T19:58:18.992Z,15.00
2022-10-23T20:00:47.968Z,15.00
2022-10-23T20:03:16.676Z,15.00
2022-10-23T20:05:46.869Z,14.90
2022-10-23T20:08:15.770Z,14.90
2022-10-23T20:10:46.182Z,14.80
2022-10-23T20:13:19.873Z,14.80
2022-10-23T20:15:49.539Z,14.70
2022-10-23T20:18:18.595Z,14.70
2022-10-23T20:20:47.474Z,14.60
2022-10-23T20:23:16.372Z,14.50
2022-10-23T20:25:47.272Z,14.50
2022-10-23T20:28:17.801Z,14.40
2022-10-23T20:30:46.995Z,14.40
2022-10-23T20:33:15.897Z,14.40
2022-10-23T20:35:45.415Z,14.30
2022-10-23T20:38:18.260Z,14.30
2022-10-23T20:40:47.708Z,14.30
2022-10-23T20:43:18.437Z,14.30
2022-10-23T20:45:47.639Z,14.20
2022-10-23T20:48:16.729Z,14.20
2022-10-23T20:50:45.638Z,14.10
2022-10-23T20:53:14.601Z,14.10
2022-10-23T20:56:05.372Z,14.10
2022-10-23T20:58:35.800Z,14.00
2022-10-23T21:01:06.186Z,14.00
2022-10-23T21:03:35.399Z,14.00
2022-10-23T21:06:05.630Z,13.90
2022-10-23T21:08:34.722Z,13.90
2022-10-23T21:11:03.962Z,13.90
2022-10-23T21:13:34.613Z,13.90
2022-10-23T21:16:13.774Z,13.90
2022-10-23T21:18:46.863Z,13.80
2022-10-23T21:21:19.365Z,13.80
2022-10-23T21:23:49.411Z,13.80
2022-10-23T21:26:19.846Z,13.80
2022-10-23T21:28:56.411Z,13.80
2022-10-23T21:31:36.149Z,13.80
2022-10-23T21:34:05.936Z,13.80
2022-10-23T21:36:43.716Z,13.80
2022-10-23T21:39:42.717Z,13.80
2022-10-23T21:42:11.805Z,13.80
2022-10-23T21:44:42.192Z,13.70
2022-10-23T21:47:11.240Z,13.70
2022-10-23T21:49:40.206Z,13.70
2022-10-23T21:52:09.215Z,13.70
2022-10-23T21:54:38.109Z,13.70
2022-10-23T21:57:07.028Z,13.60
2022-10-23T21:59:36.348Z,13.70
2022-10-23T22:02:06.641Z,13.60
2022-10-23T22:04:35.824Z,13.50
2022-10-23T22:07:05.267Z,13.50
2022-10-23T22:09:35.400Z,13.50
2022-10-23T22:12:04.397Z,13.50
2022-10-23T22:14:33.654Z,13.50
2022-10-23T22:17:02.619Z,13.50
2022-10-23T22:19:33.083Z,13.50
2022-10-23T22:22:01.960Z,13.50
2022-10-23T22:24:30.774Z,13.50
2022-10-23T22:26:59.822Z,13.50
2022-10-23T22:29:30.633Z,13.50
2022-10-23T22:31:59.825Z,13.50
2022-10-23T22:37:20.641Z,13.50
2022-10-23T22:39:52.949Z,13.40
2022-10-23T22:42:22.159Z,13.40
2022-10-23T22:44:50.894Z,13.40
2022-10-23T22:47:19.724Z,13.40
2022-10-23T22:49:48.585Z,13.40
2022-10-23T22:52:17.363Z,13.30
2022-10-23T22:54:49.018Z,13.40
2022-10-23T22:57:18.016Z,13.40
2022-10-23T22:59:46.935Z,13.40
2022-10-23T23:02:15.903Z,13.40
2022-10-23T23:04:44.723Z,13.30
2022-10-23T23:07:14.288Z,13.30
2022-10-23T23:09:44.686Z,13.30
2022-10-23T23:12:16.167Z,13.20
2022-10-23T23:14:45.450Z,13.20
2022-10-23T23:17:14.241Z,13.10
2022-10-23T23:19:43.077Z,13.00
2022-10-23T23:22:11.961Z,13.00
2022-10-23T23:24:40.763Z,13.00
2022-10-23T23:27:09.635Z,13.00
2022-10-23T23:29:39.872Z,12.90
2022-10-23T23:32:08.783Z,12.90
2022-10-23T23:34:37.541Z,12.90
2022-10-23T23:37:06.535Z,12.80
2022-10-23T23:39:35.383Z,12.80
2022-10-23T23:42:04.250Z,12.80
2022-10-23T23:44:34.581Z,12.60
2022-10-23T23:47:04.954Z,12.50
2022-10-23T23:49:33.884Z,12.40
2022-10-23T23:52:02.756Z,12.30
2022-10-23T23:54:31.923Z,12.20
2022-10-23T23:57:05.871Z,12.10
2022-10-23T23:59:38.565Z,12.10
